createdAt,value
2022-11-24T00:01:33.512Z,37.70
2022-11-24T00:04:05.584Z,38.17
2022-11-24T00:06:37.055Z,38.70
2022-11-24T00:09:08.061Z,38.47
2022-11-24T00:11:38.138Z,37.97
2022-11-24T00:14:08.193Z,39.97
2022-11-24T00:16:38.797Z,40.63
2022-11-24T00:19:10.243Z,40.87
2022-11-24T00:21:39.751Z,41.00
2022-11-24T00:24:11.627Z,41.80
2022-11-24T00:26:40.312Z,40.07
2022-11-24T00:29:12.362Z,41.33
2022-11-24T00:31:43.532Z,43.90
2022-11-24T00:34:14.948Z,42.60
2022-11-24T00:36:43.894Z,43.80
2022-11-24T00:39:16.280Z,41.87
2022-11-24T00:41:45.339Z,43.87
2022-11-24T00:44:14.021Z,43.10
2022-11-24T00:46:42.779Z,44.70
2022-11-24T00:49:11.803Z,42.90
2022-11-24T00:51:40.416Z,44.43
2022-11-24T00:54:08.954Z,45.30
2022-11-24T00:56:38.914Z,45.80
2022-11-24T00:59:07.666Z,45.37
2022-11-24T01:01:36.340Z,46.20
2022-11-24T01:04:05.946Z,44.87
2022-11-24T01:06:35.756Z,45.23
2022-11-24T01:09:05.279Z,45.50
2022-11-24T01:11:50.682Z,47.30
2022-11-24T01:14:22.593Z,44.87
2022-11-24T01:16:51.647Z,44.07
2022-11-24T01:19:20.314Z,45.17
2022-11-24T01:21:49.415Z,45.43
2022-11-24T01:24:18.557Z,44.90
2022-11-24T01:26:47.693Z,43.13
2022-11-24T01:29:17.776Z,41.23
2022-11-24T01:31:47.762Z,41.77
2022-11-24T01:34:16.410Z,44.00
2022-11-24T01:36:45.173Z,42.40
2022-11-24T01:39:14.437Z,42.53
2022-11-24T01:41:43.025Z,39.60
2022-11-24T01:44:26.695Z,38.37
2022-11-24T01:46:59.898Z,37.60
2022-11-24T01:49:39.061Z,39.20
2022-11-24T01:52:15.412Z,38.10
2022-11-24T01:54:49.999Z,35.27
2022-11-24T01:57:24.714Z,37.90
2022-11-24T02:00:01.072Z,39.70
2022-11-24T02:02:31.873Z,41.13
2022-11-24T02:05:07.471Z,42.93
2022-11-24T02:07:38.559Z,46.07
2022-11-24T02:10:14.696Z,47.43
2022-11-24T02:12:48.698Z,45.73
2022-11-24T02:15:18.878Z,46.93
2022-11-24T02:17:48.796Z,49.00
2022-11-24T02:20:19.164Z,50.50
2022-11-24T02:22:57.262Z,52.10
2022-11-24T02:25:40.381Z,49.47
2022-11-24T02:28:15.654Z,48.37
2022-11-24T02:30:44.635Z,49.60
2022-11-24T02:33:14.744Z,48.93
2022-11-24T02:35:43.355Z,48.60
2022-11-24T02:38:14.464Z,47.57
2022-11-24T02:40:50.382Z,45.50
2022-11-24T02:43:24.700Z,45.23
2022-11-24T02:45:53.250Z,46.40
2022-11-24T02:48:22.110Z,44.47
2022-11-24T02:50:50.642Z,44.97
2022-11-24T02:53:19.250Z,42.27
2022-11-24T02:55:47.780Z,42.20
2022-11-24T02:58:16.294Z,45.70
2022-11-24T03:00:46.224Z,42.03
2022-11-24T03:03:15.262Z,42.40
2022-11-24T03:05:43.966Z,41.53
2022-11-24T03:08:13.075Z,41.10
2022-11-24T03:10:41.577Z,39.23
2022-11-24T03:13:10.502Z,34.90
2022-11-24T03:15:39.405Z,40.27
2022-11-24T03:18:09.763Z,40.33
2022-11-24T03:20:38.490Z,38.87
2022-11-24T03:23:07.118Z,43.03
2022-11-24T03:25:35.665Z,39.43
2022-11-24T03:28:04.612Z,42.97
2022-11-24T03:30:33.262Z,42.73
2022-11-24T03:33:01.785Z,36.53
2022-11-24T03:35:31.730Z,31.23
2022-11-24T03:38:00.214Z,28.23
2022-11-24T03:40:28.746Z,27.80
2022-11-24T03:42:57.411Z,29.20
2022-11-24T03:48:14.919Z,27.83
2022-11-24T03:50:45.209Z,28.70
2022-11-24T03:53:13.917Z,27.57
2022-11-24T03:55:44.836Z,28.40
2022-11-24T03:58:13.524Z,28.47
2022-11-24T04:00:42.177Z,25.63
2022-11-24T04:03:10.765Z,27.43
2022-11-24T04:05:39.396Z,27.03
2022-11-24T04:08:09.790Z,27.20
2022-11-24T04:10:40.342Z,27.63
2022-11-24T04:13:13.437Z,23.50
2022-11-24T04:15:44.087Z,23.27
2022-11-24T04:18:14.449Z,24.23
2022-11-24T04:20:43.680Z,22.53
2022-11-24T04:23:13.755Z,24.63
2022-11-24T04:25:43.775Z,23.90
2022-11-24T04:28:12.649Z,23.57
2022-11-24T04:30:44.741Z,22.30
2022-11-24T04:33:14.436Z,22.00
2022-11-24T04:35:42.991Z,20.93
2022-11-24T04:38:12.886Z,21.93
2022-11-24T04:40:41.481Z,21.83
2022-11-24T04:43:12.172Z,24.77
2022-11-24T04:45:40.775Z,21.43
2022-11-24T04:48:09.417Z,19.47
2022-11-24T04:50:39.175Z,21.10
2022-11-24T04:53:07.710Z,22.50
2022-11-24T04:55:40.042Z,20.10
2022-11-24T04:58:09.795Z,18.60
2022-11-24T05:00:39.270Z,18.93
2022-11-24T05:03:07.814Z,18.10
2022-11-24T05:05:36.388Z,18.80
2022-11-24T05:08:05.538Z,18.80
2022-11-24T05:10:37.008Z,19.23
2022-11-24T05:13:12.150Z,19.27
2022-11-24T05:15:43.046Z,19.00
2022-11-24T05:18:16.437Z,17.27
2022-11-24T05:20:45.892Z,17.77
2022-11-24T05:23:14.701Z,18.93
2022-11-24T05:25:47.474Z,19.77
2022-11-24T05:28:19.211Z,19.53
2022-11-24T05:30:47.892Z,19.37
2022-11-24T05:33:19.266Z,19.87
2022-11-24T05:35:49.145Z,24.50
2022-11-24T05:38:19.080Z,19.47
2022-11-24T05:40:47.559Z,20.13
2022-11-24T05:43:18.584Z,19.40
2022-11-24T05:45:47.344Z,19.70
2022-11-24T05:48:16.803Z,18.90
2022-11-24T05:50:45.450Z,21.80
2022-11-24T05:53:15.057Z,21.00
2022-11-24T05:55:43.663Z,21.50
2022-11-24T05:58:12.266Z,21.83
2022-11-24T06:00:42.347Z,24.40
2022-11-24T06:03:12.379Z,23.17
2022-11-24T06:05:40.990Z,22.37
2022-11-24T06:08:09.590Z,21.77
2022-11-24T06:10:38.220Z,22.43
2022-11-24T06:13:08.790Z,23.43
2022-11-24T06:15:38.649Z,22.97
2022-11-24T06:18:08.698Z,22.60
2022-11-24T06:20:37.310Z,22.70
2022-11-24T06:23:05.872Z,23.43
2022-11-24T06:25:34.392Z,21.37
2022-11-24T06:28:06.759Z,23.23
2022-11-24T06:30:35.283Z,22.13
2022-11-24T06:33:03.904Z,21.20
2022-11-24T06:35:33.814Z,20.30
2022-11-24T06:38:02.367Z,21.47
2022-11-24T06:40:31.056Z,21.00
2022-11-24T06:42:59.600Z,20.87
2022-11-24T06:45:28.516Z,20.63
2022-11-24T06:47:57.378Z,22.00
2022-11-24T06:50:32.092Z,20.37
2022-11-24T06:53:03.428Z,18.63
2022-11-24T06:55:32.003Z,19.93
2022-11-24T06:58:02.948Z,17.47
2022-11-24T07:00:32.287Z,19.00
2022-11-24T07:03:04.553Z,16.67
2022-11-24T07:05:33.258Z,17.50
2022-11-24T07:08:18.107Z,15.87
2022-11-24T07:10:48.743Z,18.60
2022-11-24T07:13:19.954Z,18.10
2022-11-24T07:15:48.885Z,16.27
2022-11-24T07:18:17.669Z,17.57
2022-11-24T07:20:46.330Z,15.97
2022-11-24T07:23:19.233Z,16.83
2022-11-24T07:26:03.681Z,16.53
2022-11-24T07:28:42.291Z,15.53
2022-11-24T07:31:27.137Z,14.20
2022-11-24T07:33:56.797Z,14.47
2022-11-24T07:36:26.218Z,15.70
2022-11-24T07:38:56.123Z,14.03
2022-11-24T07:41:24.803Z,13.73
2022-11-24T07:43:55.636Z,14.20
2022-11-24T07:46:32.235Z,13.83
2022-11-24T07:49:02.706Z,14.70
2022-11-24T07:52:00.270Z,13.60
2022-11-24T07:54:45.428Z,15.60
2022-11-24T07:57:24.804Z,14.83
2022-11-24T07:59:56.282Z,14.10
2022-11-24T08:02:25.487Z,11.33
2022-11-24T08:04:54.008Z,10.80
2022-11-24T08:07:22.669Z,10.30
2022-11-24T08:09:52.739Z,12.33
2022-11-24T08:12:25.090Z,10.37
2022-11-24T08:14:53.655Z,9.00
2022-11-24T08:17:30.453Z,9.83
2022-11-24T08:20:44.353Z,9.37
2022-11-24T08:23:43.076Z,10.23
2022-11-24T08:26:28.373Z,9.77
2022-11-24T08:28:59.438Z,8.80
2022-11-24T08:31:33.554Z,9.20
2022-11-24T08:34:06.693Z,8.93
2022-11-24T08:36:35.735Z,8.77
2022-11-24T08:39:04.774Z,9.23
2022-11-24T08:41:34.801Z,9.03
2022-11-24T08:44:03.422Z,8.48
2022-11-24T08:46:32.032Z,8.57
2022-11-24T08:49:00.646Z,8.52
2022-11-24T08:51:30.015Z,8.65
2022-11-24T08:54:00.764Z,8.60
2022-11-24T08:56:32.623Z,8.50
2022-11-24T08:59:03.138Z,7.80
2022-11-24T09:01:32.024Z,8.70
2022-11-24T09:04:00.814Z,8.07
2022-11-24T09:06:31.793Z,7.80
2022-11-24T09:09:00.874Z,9.60
2022-11-24T09:11:30.816Z,7.07
2022-11-24T09:13:59.380Z,7.45
2022-11-24T09:16:30.852Z,7.15
2022-11-24T09:19:02.057Z,7.43
2022-11-24T09:21:32.357Z,7.03
2022-11-24T09:24:01.193Z,7.22
2022-11-24T09:26:32.240Z,7.07
2022-11-24T09:29:02.980Z,6.30
2022-11-24T09:31:37.016Z,6.47
2022-11-24T09:34:08.250Z,6.53
2022-11-24T09:36:37.202Z,6.25
2022-11-24T09:39:06.012Z,6.53
2022-11-24T09:41:45.796Z,5.65
2022-11-24T09:44:58.456Z,6.28
2022-11-24T09:47:43.560Z,6.40
2022-11-24T09:50:17.933Z,6.68
2022-11-24T09:52:59.311Z,6.85
2022-11-24T09:55:38.032Z,6.50
2022-11-24T09:58:41.471Z,6.43
2022-11-24T10:01:18.226Z,6.13
2022-11-24T10:03:52.058Z,6.05
2022-11-24T10:06:28.346Z,5.70
2022-11-24T10:09:32.567Z,5.40
2022-11-24T10:12:17.504Z,5.53
2022-11-24T10:15:42.459Z,5.70
2022-11-24T10:18:43.235Z,5.40
2022-11-24T10:21:38.303Z,5.13
2022-11-24T10:24:44.646Z,4.63
2022-11-24T10:27:19.330Z,4.63
2022-11-24T10:29:53.239Z,4.43
2022-11-24T10:32:26.956Z,5.50
2022-11-24T10:35:01.215Z,6.78
2022-11-24T10:37:38.250Z,4.20
2022-11-24T10:40:48.577Z,4.57
2022-11-24T10:43:11.138Z,4.03
2022-11-24T10:45:40.649Z,5.45
2022-11-24T10:48:23.552Z,5.43
2022-11-24T10:51:09.511Z,5.15
2022-11-24T10:53:43.915Z,4.45
2022-11-24T10:56:12.568Z,4.88
2022-11-24T10:58:41.330Z,5.35
2022-11-24T11:01:33.729Z,4.80
2022-11-24T11:04:02.725Z,5.55
2022-11-24T11:06:32.982Z,6.57
2022-11-24T11:09:21.240Z,6.45
2022-11-24T11:11:50.537Z,5.60
2022-11-24T11:14:35.743Z,4.82
2022-11-24T11:17:24.852Z,4.75
2022-11-24T11:20:02.059Z,4.65
2022-11-24T11:22:34.490Z,5.00
2022-11-24T11:25:19.549Z,4.22
2022-11-24T11:27:48.956Z,4.57
2022-11-24T11:36:15.900Z,4.80
2022-11-24T11:38:46.557Z,4.28
2022-11-24T11:41:25.577Z,4.57
2022-11-24T11:44:08.512Z,4.15
2022-11-24T11:46:38.178Z,4.00
2022-11-24T11:49:06.963Z,4.03
2022-11-24T11:51:57.685Z,4.30
2022-11-24T11:54:51.372Z,4.13
2022-11-24T11:57:37.824Z,4.05
2022-11-24T12:00:17.652Z,4.10
2022-11-24T12:08:44.009Z,4.10
2022-11-24T12:12:46.584Z,3.83
2022-11-24T12:15:29.553Z,4.20
2022-11-24T12:22:04.165Z,3.65
2022-11-24T12:25:46.350Z,4.15
2022-11-24T12:28:36.772Z,5.30
2022-11-24T12:31:12.593Z,8.98
2022-11-24T12:34:29.368Z,5.40
2022-11-24T12:37:25.062Z,4.82
2022-11-24T12:40:05.731Z,4.35
2022-11-24T12:42:45.209Z,5.07
2022-11-24T12:45:33.352Z,4.75
2022-11-24T12:49:58.390Z,4.53
2022-11-24T12:53:17.972Z,4.72
2022-11-24T12:55:57.725Z,4.53
2022-11-24T12:59:14.099Z,4.35
2022-11-24T13:02:36.684Z,5.05
2022-11-24T13:06:10.404Z,4.93
2022-11-24T13:08:41.924Z,5.68
2022-11-24T13:11:40.267Z,4.93
2022-11-24T13:14:17.341Z,5.13
2022-11-24T13:19:44.868Z,5.63
2022-11-24T13:22:25.921Z,5.82
2022-11-24T13:25:20.230Z,5.90
2022-11-24T13:27:53.203Z,6.22
2022-11-24T13:31:09.257Z,5.65
2022-11-24T13:33:40.255Z,5.88
2022-11-24T13:36:32.076Z,5.80
2022-11-24T13:39:05.154Z,5.72
2022-11-24T13:42:03.923Z,5.90
2022-11-24T13:44:52.741Z,5.72
2022-11-24T13:47:46.978Z,6.45
2022-11-24T13:50:25.753Z,6.45
2022-11-24T13:53:07.604Z,5.80
2022-11-24T13:55:42.979Z,5.97
2022-11-24T13:58:37.420Z,6.80
2022-11-24T14:01:19.214Z,5.63
2022-11-24T14:07:07.461Z,7.60
2022-11-24T14:09:44.089Z,7.15
2022-11-24T14:12:19.388Z,6.55
2022-11-24T14:14:50.461Z,6.40
2022-11-24T14:17:23.355Z,7.00
2022-11-24T14:19:54.270Z,6.80
2022-11-24T14:22:27.001Z,8.20
2022-11-24T14:24:58.545Z,9.18
2022-11-24T14:27:32.901Z,7.50
2022-11-24T14:30:03.940Z,7.47
2022-11-24T14:32:32.641Z,8.00
2022-11-24T14:35:01.275Z,7.80
2022-11-24T14:37:30.049Z,8.00
2022-11-24T14:39:58.768Z,8.45
2022-11-24T14:42:29.925Z,7.95
2022-11-24T14:45:03.945Z,7.97
2022-11-24T14:47:36.299Z,7.25
2022-11-24T14:50:14.052Z,7.13
2022-11-24T14:52:51.662Z,7.63
2022-11-24T14:55:32.258Z,9.77
2022-11-24T14:58:02.420Z,11.05
2022-11-24T15:00:34.884Z,9.00
2022-11-24T15:03:18.696Z,7.35
2022-11-24T15:05:57.179Z,8.27
2022-11-24T15:08:28.275Z,7.53
2022-11-24T15:11:01.571Z,8.38
2022-11-24T15:13:37.212Z,8.75
2022-11-24T15:16:10.208Z,9.93
2022-11-24T15:18:44.579Z,9.48
2022-11-24T15:21:18.872Z,8.82
2022-11-24T15:24:08.630Z,8.20
2022-11-24T15:26:41.913Z,7.40
2022-11-24T15:29:13.570Z,8.65
2022-11-24T15:31:49.217Z,9.35
2022-11-24T15:34:20.918Z,12.32
2022-11-24T15:36:49.697Z,7.97
2022-11-24T15:39:18.262Z,7.60
2022-11-24T15:41:46.969Z,7.55
2022-11-24T15:44:16.987Z,7.57
2022-11-24T15:46:45.656Z,6.20
2022-11-24T15:49:14.371Z,6.30
2022-11-24T15:51:47.041Z,6.78
2022-11-24T15:54:18.185Z,6.30
2022-11-24T15:56:47.180Z,5.88
2022-11-24T15:59:20.775Z,6.03
2022-11-24T16:01:51.082Z,5.75
2022-11-24T16:04:19.896Z,6.05
2022-11-24T16:06:48.893Z,5.65
2022-11-24T16:09:18.401Z,11.48
2022-11-24T16:11:47.006Z,5.97
2022-11-24T16:14:17.170Z,10.90
2022-11-24T16:16:46.009Z,16.60
2022-11-24T16:19:15.933Z,5.82
2022-11-24T16:21:44.588Z,5.45
2022-11-24T16:24:13.265Z,9.20
2022-11-24T16:26:42.084Z,6.83
2022-11-24T16:29:10.705Z,6.03
2022-11-24T16:31:43.592Z,5.95
2022-11-24T16:34:12.383Z,5.70
2022-11-24T16:36:40.996Z,4.95
2022-11-24T16:39:09.585Z,5.45
2022-11-24T16:41:38.260Z,5.43
2022-11-24T16:44:06.893Z,5.40
2022-11-24T16:46:35.717Z,5.53
2022-11-24T16:49:05.822Z,5.60
2022-11-24T16:51:35.204Z,5.20
2022-11-24T16:54:04.815Z,5.50
2022-11-24T16:56:33.697Z,5.60
2022-11-24T16:59:02.682Z,5.82
2022-11-24T17:01:33.032Z,5.53
2022-11-24T17:04:02.761Z,5.70
2022-11-24T17:06:34.695Z,6.05
2022-11-24T17:09:03.480Z,6.53
2022-11-24T17:11:32.365Z,6.78
2022-11-24T17:14:01.151Z,7.25
2022-11-24T17:16:30.743Z,7.10
2022-11-24T17:18:59.888Z,7.00
2022-11-24T17:21:31.264Z,7.43
2022-11-24T17:24:05.402Z,7.38
2022-11-24T17:26:35.376Z,19.43
2022-11-24T17:29:04.314Z,8.98
2022-11-24T17:31:35.866Z,10.10
2022-11-24T17:34:07.522Z,7.35
2022-11-24T17:36:38.319Z,7.27
2022-11-24T17:39:08.627Z,7.80
2022-11-24T17:41:37.371Z,7.50
2022-11-24T17:44:09.813Z,7.63
2022-11-24T17:46:39.370Z,7.27
2022-11-24T17:49:08.574Z,7.07
2022-11-24T17:51:37.152Z,7.22
2022-11-24T17:54:24.675Z,7.27
2022-11-24T17:56:56.090Z,7.10
2022-11-24T17:59:24.625Z,8.10
2022-11-24T18:01:53.361Z,7.57
2022-11-24T18:04:22.184Z,6.47
2022-11-24T18:06:51.134Z,7.50
2022-11-24T18:09:21.128Z,7.53
2022-11-24T18:11:52.013Z,6.80
2022-11-24T18:14:20.696Z,7.20
2022-11-24T18:16:49.354Z,6.93
2022-11-24T18:19:18.036Z,6.53
2022-11-24T18:21:46.974Z,6.47
2022-11-24T18:24:18.555Z,6.83
2022-11-24T18:26:51.375Z,6.90
2022-11-24T18:29:20.048Z,6.90
2022-11-24T18:31:48.926Z,8.13
2022-11-24T18:34:17.545Z,11.90
2022-11-24T18:36:47.589Z,8.73
2022-11-24T18:39:18.189Z,6.80
2022-11-24T18:41:47.276Z,8.00
2022-11-24T18:44:17.364Z,7.35
2022-11-24T18:46:45.890Z,7.22
2022-11-24T18:49:14.473Z,6.80
2022-11-24T18:51:44.095Z,7.25
2022-11-24T18:54:12.704Z,6.55
2022-11-24T18:56:41.305Z,6.43
2022-11-24T18:59:10.318Z,6.25
2022-11-24T19:01:40.279Z,6.63
2022-11-24T19:04:09.003Z,6.30
2022-11-24T19:06:39.290Z,6.10
2022-11-24T19:09:10.519Z,6.57
2022-11-24T19:11:41.160Z,6.68
2022-11-24T19:14:14.176Z,6.55
2022-11-24T19:16:46.374Z,7.05
2022-11-24T19:19:17.053Z,10.55
2022-11-24T19:21:45.975Z,13.02
2022-11-24T19:24:14.634Z,8.02
2022-11-24T19:26:43.273Z,7.05
2022-11-24T19:29:11.905Z,6.72
2022-11-24T19:31:40.913Z,6.97
2022-11-24T19:34:11.232Z,6.80
2022-11-24T19:36:43.196Z,7.07
2022-11-24T19:39:15.892Z,6.60
2022-11-24T19:41:44.707Z,6.50
2022-11-24T19:44:14.243Z,6.63
2022-11-24T19:46:43.064Z,7.03
2022-11-24T19:49:13.331Z,6.80
2022-11-24T19:51:41.961Z,7.00
2022-11-24T19:54:13.833Z,8.20
2022-11-24T19:56:42.613Z,8.90
2022-11-24T19:59:15.278Z,8.90
2022-11-24T20:01:44.092Z,11.98
2022-11-24T20:04:16.548Z,9.80
2022-11-24T20:06:47.902Z,8.20
2022-11-24T20:09:19.106Z,7.55
2022-11-24T20:11:48.743Z,7.88
2022-11-24T20:14:19.357Z,7.68
2022-11-24T20:16:48.172Z,8.05
2022-11-24T20:19:19.487Z,8.60
2022-11-24T20:21:50.277Z,7.40
2022-11-24T20:24:21.986Z,8.05
2022-11-24T20:26:53.849Z,7.97
2022-11-24T20:29:22.641Z,8.53
2022-11-24T20:31:54.136Z,7.35
2022-11-24T20:34:25.237Z,7.78
2022-11-24T20:36:54.203Z,7.78
2022-11-24T20:39:26.480Z,8.43
2022-11-24T20:41:56.133Z,8.48
2022-11-24T20:44:26.816Z,8.45
2022-11-24T20:46:59.849Z,8.13
2022-11-24T20:49:30.262Z,7.80
2022-11-24T20:51:58.901Z,8.00
2022-11-24T20:54:28.146Z,8.25
2022-11-24T20:56:56.845Z,8.55
2022-11-24T20:59:26.494Z,8.85
2022-11-24T21:01:56.341Z,8.23
2022-11-24T21:04:28.050Z,8.48
2022-11-24T21:06:57.971Z,8.32
2022-11-24T21:09:27.571Z,8.05
2022-11-24T21:11:56.170Z,8.23
2022-11-24T21:14:25.638Z,8.85
2022-11-24T21:16:54.382Z,8.35
2022-11-24T21:19:23.033Z,8.98
2022-11-24T21:21:51.626Z,9.18
2022-11-24T21:24:22.674Z,9.77
2022-11-24T21:26:52.904Z,9.00
2022-11-24T21:29:23.585Z,8.80
2022-11-24T21:31:52.649Z,9.63
2022-11-24T21:34:21.491Z,8.63
2022-11-24T21:36:50.099Z,8.40
2022-11-24T21:39:20.140Z,9.48
2022-11-24T21:41:49.012Z,9.55
2022-11-24T21:44:17.790Z,9.00
2022-11-24T21:46:54.204Z,9.75
2022-11-24T21:49:24.363Z,9.88
2022-11-24T21:51:55.848Z,9.52
2022-11-24T21:54:26.319Z,9.80
2022-11-24T21:56:55.633Z,9.68
2022-11-24T21:59:24.655Z,9.48
2022-11-24T22:01:53.545Z,9.00
2022-11-24T22:04:22.230Z,9.63
2022-11-24T22:06:50.713Z,8.48
2022-11-24T22:09:19.432Z,8.80
2022-11-24T22:11:52.177Z,8.70
2022-11-24T22:14:20.759Z,8.85
2022-11-24T22:16:49.888Z,8.48
2022-11-24T22:19:19.044Z,8.60
2022-11-24T22:21:47.674Z,9.45
2022-11-24T22:24:16.227Z,9.90
2022-11-24T22:26:44.823Z,9.38
2022-11-24T22:29:14.859Z,8.32
2022-11-24T22:31:43.984Z,8.60
2022-11-24T22:34:12.625Z,8.68
2022-11-24T22:36:41.179Z,8.65
2022-11-24T22:39:13.489Z,8.05
2022-11-24T22:41:42.044Z,7.47
2022-11-24T22:44:10.897Z,7.77
2022-11-24T22:46:40.845Z,7.57
2022-11-24T22:49:11.107Z,8.13
2022-11-24T22:51:40.602Z,7.40
2022-11-24T22:54:12.438Z,7.20
2022-11-24T22:56:41.027Z,7.15
2022-11-24T22:59:09.858Z,6.90
2022-11-24T23:01:38.477Z,6.35
2022-11-24T23:04:08.443Z,6.53
2022-11-24T23:06:37.068Z,6.80
2022-11-24T23:09:07.306Z,6.53
2022-11-24T23:11:40.299Z,6.25
2022-11-24T23:14:14.622Z,6.90
2022-11-24T23:16:44.283Z,6.03
2022-11-24T23:19:14.374Z,5.03
2022-11-24T23:21:42.982Z,5.53
2022-11-24T23:24:12.880Z,5.25
2022-11-24T23:26:42.784Z,4.85
2022-11-24T23:29:12.972Z,5.10
2022-11-24T23:31:42.656Z,4.53
2022-11-24T23:34:11.407Z,4.90
2022-11-24T23:36:41.666Z,4.38
2022-11-24T23:39:14.419Z,4.63
2022-11-24T23:41:43.244Z,4.28
2022-11-24T23:44:11.817Z,4.70
2022-11-24T23:46:40.446Z,4.28
2022-11-24T23:49:09.105Z,4.10
2022-11-24T23:51:41.615Z,4.00
2022-11-24T23:54:11.626Z,3.55
2022-11-24T23:56:40.475Z,3.95
2022-11-24T23:59:12.391Z,3.70
